Pavilion, New York
Current Conditions -  °F | °C
As of 11:54 PM on Sunday 21 Dec 2014 (Local Time) from KROC Reporting Station
Overcast Overcast  
Wind Chill: 25°   Ceiling: 2700
Heat Index: 32°   Visibility: 10mi
Dew Point: 21°   Wind: 8mph
Humidity: 64%   Direction: 160°SSE
Pressure: 30.3"   Gusts: NA
Location:  42.88°N, 78.02°W
Report Text: KROC 220454Z 16007KT 10SM OVC027 00/M06 A3030 RMK AO2 SLP270 T00001061 400281033
Loading
Personal Weather Stations






























Interactive Weather Map New forecast layout! Learn more

10-Day Weather Forecast

Advertisements
Track Severe Weather on mobile